sensor_id;sensor_type;location;lat;lon;timestamp;P1;durP1;ratioP1;P2;durP2;ratioP2
35042;SDS011;21230;51.170;17.024;2022-12-07T00:01:20;18.20;;;10.00;;
35042;SDS011;21230;51.170;17.024;2022-12-07T00:03:51;15.25;;;8.35;;
35042;SDS011;21230;51.170;17.024;2022-12-07T00:06:18;18.48;;;10.60;;
35042;SDS011;21230;51.170;17.024;2022-12-07T00:08:45;23.80;;;11.85;;
35042;SDS011;21230;51.170;17.024;2022-12-07T00:11:12;22.02;;;11.23;;
35042;SDS011;21230;51.170;17.024;2022-12-07T00:13:41;18.30;;;10.48;;
35042;SDS011;21230;51.170;17.024;2022-12-07T00:16:09;24.48;;;10.85;;
35042;SDS011;21230;51.170;17.024;2022-12-07T00:18:38;16.77;;;9.98;;
35042;SDS011;21230;51.170;17.024;2022-12-07T00:21:05;17.48;;;9.15;;
35042;SDS011;21230;51.170;17.024;2022-12-07T00:23:35;12.02;;;8.15;;
35042;SDS011;21230;51.170;17.024;2022-12-07T00:26:05;12.77;;;7.90;;
35042;SDS011;21230;51.170;17.024;2022-12-07T00:28:33;15.50;;;7.38;;
35042;SDS011;21230;51.170;17.024;2022-12-07T00:31:06;18.92;;;9.18;;
35042;SDS011;21230;51.170;17.024;2022-12-07T00:33:34;16.10;;;8.55;;
35042;SDS011;21230;51.170;17.024;2022-12-07T00:36:01;9.30;;;5.57;;
35042;SDS011;21230;51.170;17.024;2022-12-07T00:38:29;15.63;;;10.52;;
35042;SDS011;21230;51.170;17.024;2022-12-07T00:40:56;9.48;;;6.75;;
35042;SDS011;21230;51.170;17.024;2022-12-07T00:43:23;12.57;;;8.63;;
35042;SDS011;21230;51.170;17.024;2022-12-07T00:45:50;12.07;;;7.75;;
35042;SDS011;21230;51.170;17.024;2022-12-07T00:48:16;12.38;;;7.13;;
35042;SDS011;21230;51.170;17.024;2022-12-07T00:50:42;11.93;;;6.85;;
35042;SDS011;21230;51.170;17.024;2022-12-07T00:53:08;21.70;;;5.97;;
35042;SDS011;21230;51.170;17.024;2022-12-07T00:55:34;6.82;;;5.15;;
35042;SDS011;21230;51.170;17.024;2022-12-07T00:58:01;10.40;;;6.07;;
35042;SDS011;21230;51.170;17.024;2022-12-07T01:00:27;11.70;;;6.47;;
35042;SDS011;21230;51.170;17.024;2022-12-07T01:02:54;9.73;;;6.05;;
35042;SDS011;21230;51.170;17.024;2022-12-07T01:05:20;15.25;;;5.93;;
35042;SDS011;21230;51.170;17.024;2022-12-07T01:07:47;9.68;;;5.65;;
35042;SDS011;21230;51.170;17.024;2022-12-07T01:10:14;11.82;;;6.45;;
35042;SDS011;21230;51.170;17.024;2022-12-07T01:12:40;9.90;;;6.05;;
35042;SDS011;21230;51.170;17.024;2022-12-07T01:15:06;8.25;;;6.30;;
35042;SDS011;21230;51.170;17.024;2022-12-07T01:17:33;13.38;;;6.63;;
35042;SDS011;21230;51.170;17.024;2022-12-07T01:19:59;8.80;;;4.78;;
35042;SDS011;21230;51.170;17.024;2022-12-07T01:22:26;9.82;;;5.85;;
35042;SDS011;21230;51.170;17.024;2022-12-07T01:24:52;8.00;;;4.78;;
35042;SDS011;21230;51.170;17.024;2022-12-07T01:27:18;23.55;;;5.07;;
35042;SDS011;21230;51.170;17.024;2022-12-07T01:29:44;11.02;;;5.40;;
35042;SDS011;21230;51.170;17.024;2022-12-07T01:32:10;7.82;;;5.05;;
35042;SDS011;21230;51.170;17.024;2022-12-07T01:34:36;10.40;;;5.68;;
35042;SDS011;21230;51.170;17.024;2022-12-07T01:37:04;11.43;;;4.97;;
35042;SDS011;21230;51.170;17.024;2022-12-07T01:39:30;10.18;;;4.60;;
35042;SDS011;21230;51.170;17.024;2022-12-07T01:41:56;8.82;;;4.05;;
35042;SDS011;21230;51.170;17.024;2022-12-07T01:44:28;3.42;;;3.08;;
35042;SDS011;21230;51.170;17.024;2022-12-07T01:47:01;7.35;;;4.20;;
35042;SDS011;21230;51.170;17.024;2022-12-07T01:49:41;10.10;;;5.20;;
35042;SDS011;21230;51.170;17.024;2022-12-07T01:54:47;7.43;;;5.00;;
35042;SDS011;21230;51.170;17.024;2022-12-07T01:57:15;7.10;;;4.22;;
35042;SDS011;21230;51.170;17.024;2022-12-07T01:59:44;4.10;;;2.88;;
35042;SDS011;21230;51.170;17.024;2022-12-07T02:02:17;10.13;;;4.78;;
35042;SDS011;21230;51.170;17.024;2022-12-07T02:05:04;5.07;;;3.58;;
35042;SDS011;21230;51.170;17.024;2022-12-07T02:07:32;4.72;;;3.30;;
35042;SDS011;21230;51.170;17.024;2022-12-07T02:10:34;5.45;;;3.05;;
35042;SDS011;21230;51.170;17.024;2022-12-07T02:12:55;5.45;;;3.17;;
35042;SDS011;21230;51.170;17.024;2022-12-07T02:15:28;9.25;;;3.50;;
35042;SDS011;21230;51.170;17.024;2022-12-07T02:18:21;8.57;;;3.65;;
35042;SDS011;21230;51.170;17.024;2022-12-07T02:29:46;3.58;;;2.92;;
35042;SDS011;21230;51.170;17.024;2022-12-07T02:35:21;3.25;;;1.90;;
35042;SDS011;21230;51.170;17.024;2022-12-07T02:45:38;3.10;;;1.90;;
35042;SDS011;21230;51.170;17.024;2022-12-07T02:48:07;2.55;;;2.03;;
35042;SDS011;21230;51.170;17.024;2022-12-07T02:50:35;3.40;;;2.65;;
35042;SDS011;21230;51.170;17.024;2022-12-07T02:53:01;2.83;;;2.13;;
35042;SDS011;21230;51.170;17.024;2022-12-07T02:55:37;3.00;;;1.45;;
35042;SDS011;21230;51.170;17.024;2022-12-07T02:58:14;2.10;;;1.48;;
35042;SDS011;21230;51.170;17.024;2022-12-07T03:00:48;2.97;;;1.77;;
35042;SDS011;21230;51.170;17.024;2022-12-07T03:03:21;3.33;;;2.25;;
35042;SDS011;21230;51.170;17.024;2022-12-07T03:05:52;3.78;;;2.38;;
35042;SDS011;21230;51.170;17.024;2022-12-07T03:10:50;14.57;;;2.42;;
35042;SDS011;21230;51.170;17.024;2022-12-07T03:16:23;5.25;;;2.22;;
35042;SDS011;21230;51.170;17.024;2022-12-07T03:19:06;2.53;;;1.60;;
35042;SDS011;21230;51.170;17.024;2022-12-07T03:21:40;3.47;;;1.55;;
35042;SDS011;21230;51.170;17.024;2022-12-07T03:24:29;2.43;;;2.23;;
35042;SDS011;21230;51.170;17.024;2022-12-07T03:27:08;2.20;;;1.45;;
35042;SDS011;21230;51.170;17.024;2022-12-07T03:29:41;2.10;;;1.70;;
35042;SDS011;21230;51.170;17.024;2022-12-07T03:32:13;2.90;;;2.15;;
35042;SDS011;21230;51.170;17.024;2022-12-07T03:34:56;3.03;;;1.70;;
35042;SDS011;21230;51.170;17.024;2022-12-07T03:42:47;2.95;;;1.88;;
35042;SDS011;21230;51.170;17.024;2022-12-07T03:45:14;1.65;;;1.55;;
35042;SDS011;21230;51.170;17.024;2022-12-07T03:54:15;3.38;;;2.72;;
35042;SDS011;21230;51.170;17.024;2022-12-07T03:56:26;4.65;;;3.13;;
35042;SDS011;21230;51.170;17.024;2022-12-07T03:58:53;2.95;;;2.67;;
35042;SDS011;21230;51.170;17.024;2022-12-07T04:01:19;6.50;;;3.63;;
35042;SDS011;21230;51.170;17.024;2022-12-07T04:03:45;2.92;;;2.53;;
35042;SDS011;21230;51.170;17.024;2022-12-07T04:06:12;3.63;;;3.33;;
35042;SDS011;21230;51.170;17.024;2022-12-07T04:08:38;3.38;;;2.60;;
35042;SDS011;21230;51.170;17.024;2022-12-07T04:11:04;2.97;;;2.63;;
35042;SDS011;21230;51.170;17.024;2022-12-07T04:13:32;4.35;;;3.22;;
35042;SDS011;21230;51.170;17.024;2022-12-07T04:16:17;6.75;;;4.10;;
35042;SDS011;21230;51.170;17.024;2022-12-07T04:18:44;8.88;;;4.63;;
35042;SDS011;21230;51.170;17.024;2022-12-07T04:21:11;6.25;;;4.40;;
35042;SDS011;21230;51.170;17.024;2022-12-07T04:23:37;6.47;;;3.97;;
35042;SDS011;21230;51.170;17.024;2022-12-07T04:26:03;6.78;;;4.18;;
35042;SDS011;21230;51.170;17.024;2022-12-07T04:28:28;7.38;;;4.95;;
35042;SDS011;21230;51.170;17.024;2022-12-07T04:30:54;7.55;;;4.25;;
35042;SDS011;21230;51.170;17.024;2022-12-07T04:33:20;9.38;;;5.35;;
35042;SDS011;21230;51.170;17.024;2022-12-07T04:35:46;6.30;;;4.85;;
35042;SDS011;21230;51.170;17.024;2022-12-07T04:38:12;5.63;;;3.78;;
35042;SDS011;21230;51.170;17.024;2022-12-07T04:40:38;10.02;;;3.80;;
35042;SDS011;21230;51.170;17.024;2022-12-07T04:43:04;4.00;;;2.90;;
35042;SDS011;21230;51.170;17.024;2022-12-07T04:45:30;1.83;;;1.58;;
35042;SDS011;21230;51.170;17.024;2022-12-07T04:47:56;3.05;;;2.75;;
35042;SDS011;21230;51.170;17.024;2022-12-07T04:50:21;4.65;;;3.53;;
35042;SDS011;21230;51.170;17.024;2022-12-07T04:52:47;4.60;;;3.15;;
35042;SDS011;21230;51.170;17.024;2022-12-07T04:55:13;6.05;;;3.60;;
35042;SDS011;21230;51.170;17.024;2022-12-07T04:57:39;4.03;;;3.10;;
35042;SDS011;21230;51.170;17.024;2022-12-07T05:00:05;5.80;;;3.50;;
35042;SDS011;21230;51.170;17.024;2022-12-07T05:02:32;7.25;;;4.38;;
35042;SDS011;21230;51.170;17.024;2022-12-07T05:04:57;3.53;;;3.00;;
35042;SDS011;21230;51.170;17.024;2022-12-07T05:07:23;9.82;;;4.60;;
35042;SDS011;21230;51.170;17.024;2022-12-07T05:09:49;9.63;;;5.18;;
35042;SDS011;21230;51.170;17.024;2022-12-07T05:12:15;11.35;;;5.28;;
35042;SDS011;21230;51.170;17.024;2022-12-07T05:14:41;9.07;;;5.38;;
35042;SDS011;21230;51.170;17.024;2022-12-07T05:17:07;10.68;;;6.07;;
35042;SDS011;21230;51.170;17.024;2022-12-07T05:19:33;12.57;;;7.80;;
35042;SDS011;21230;51.170;17.024;2022-12-07T05:22:02;11.77;;;6.65;;
35042;SDS011;21230;51.170;17.024;2022-12-07T05:24:28;11.35;;;6.35;;
35042;SDS011;21230;51.170;17.024;2022-12-07T05:26:55;12.60;;;6.30;;
35042;SDS011;21230;51.170;17.024;2022-12-07T05:29:21;13.68;;;6.78;;
35042;SDS011;21230;51.170;17.024;2022-12-07T05:31:47;14.73;;;9.50;;
35042;SDS011;21230;51.170;17.024;2022-12-07T05:34:15;13.65;;;8.40;;
35042;SDS011;21230;51.170;17.024;2022-12-07T05:36:42;19.95;;;8.98;;
35042;SDS011;21230;51.170;17.024;2022-12-07T05:39:09;12.65;;;7.35;;
35042;SDS011;21230;51.170;17.024;2022-12-07T05:41:37;16.30;;;10.27;;
35042;SDS011;21230;51.170;17.024;2022-12-07T05:44:22;23.50;;;11.98;;
35042;SDS011;21230;51.170;17.024;2022-12-07T05:46:49;18.00;;;10.90;;
35042;SDS011;21230;51.170;17.024;2022-12-07T05:49:15;27.65;;;11.30;;
35042;SDS011;21230;51.170;17.024;2022-12-07T05:51:41;24.23;;;10.70;;
35042;SDS011;21230;51.170;17.024;2022-12-07T05:54:07;19.10;;;11.15;;
35042;SDS011;21230;51.170;17.024;2022-12-07T05:56:33;23.27;;;11.68;;
35042;SDS011;21230;51.170;17.024;2022-12-07T05:59:00;27.33;;;10.82;;
35042;SDS011;21230;51.170;17.024;2022-12-07T06:01:44;25.13;;;13.18;;
35042;SDS011;21230;51.170;17.024;2022-12-07T06:04:10;21.83;;;11.43;;
35042;SDS011;21230;51.170;17.024;2022-12-07T06:06:36;17.73;;;11.77;;
35042;SDS011;21230;51.170;17.024;2022-12-07T06:09:04;32.13;;;14.18;;
35042;SDS011;21230;51.170;17.024;2022-12-07T06:11:31;22.00;;;13.25;;
35042;SDS011;21230;51.170;17.024;2022-12-07T06:14:16;21.08;;;12.27;;
35042;SDS011;21230;51.170;17.024;2022-12-07T06:16:42;20.88;;;13.15;;
35042;SDS011;21230;51.170;17.024;2022-12-07T06:19:09;25.20;;;12.57;;
35042;SDS011;21230;51.170;17.024;2022-12-07T06:21:35;24.08;;;13.55;;
35042;SDS011;21230;51.170;17.024;2022-12-07T06:24:02;28.80;;;15.10;;
35042;SDS011;21230;51.170;17.024;2022-12-07T06:26:32;27.98;;;13.77;;
35042;SDS011;21230;51.170;17.024;2022-12-07T06:28:58;24.63;;;11.98;;
35042;SDS011;21230;51.170;17.024;2022-12-07T06:31:24;27.65;;;13.48;;
35042;SDS011;21230;51.170;17.024;2022-12-07T06:33:50;23.45;;;13.32;;
35042;SDS011;21230;51.170;17.024;2022-12-07T06:36:16;21.30;;;13.02;;
35042;SDS011;21230;51.170;17.024;2022-12-07T06:38:43;24.52;;;14.18;;
35042;SDS011;21230;51.170;17.024;2022-12-07T06:41:10;24.80;;;12.35;;
35042;SDS011;21230;51.170;17.024;2022-12-07T06:43:36;24.85;;;13.77;;
35042;SDS011;21230;51.170;17.024;2022-12-07T06:46:02;22.25;;;13.25;;
35042;SDS011;21230;51.170;17.024;2022-12-07T06:48:29;25.05;;;12.57;;
35042;SDS011;21230;51.170;17.024;2022-12-07T06:50:55;25.00;;;13.27;;
35042;SDS011;21230;51.170;17.024;2022-12-07T06:53:21;24.33;;;12.70;;
35042;SDS011;21230;51.170;17.024;2022-12-07T06:55:47;25.70;;;13.00;;
35042;SDS011;21230;51.170;17.024;2022-12-07T06:58:13;25.13;;;13.63;;
35042;SDS011;21230;51.170;17.024;2022-12-07T07:00:39;24.35;;;13.07;;
35042;SDS011;21230;51.170;17.024;2022-12-07T07:03:05;23.17;;;12.60;;
35042;SDS011;21230;51.170;17.024;2022-12-07T07:05:31;24.13;;;10.30;;
35042;SDS011;21230;51.170;17.024;2022-12-07T07:07:57;29.10;;;13.25;;
35042;SDS011;21230;51.170;17.024;2022-12-07T07:10:23;22.70;;;13.38;;
35042;SDS011;21230;51.170;17.024;2022-12-07T07:12:49;25.08;;;12.38;;
35042;SDS011;21230;51.170;17.024;2022-12-07T07:15:15;19.13;;;10.70;;
35042;SDS011;21230;51.170;17.024;2022-12-07T07:17:41;22.27;;;11.02;;
35042;SDS011;21230;51.170;17.024;2022-12-07T07:20:07;20.80;;;11.35;;
35042;SDS011;21230;51.170;17.024;2022-12-07T07:22:33;20.85;;;12.60;;
35042;SDS011;21230;51.170;17.024;2022-12-07T07:24:59;22.90;;;11.43;;
35042;SDS011;21230;51.170;17.024;2022-12-07T07:27:25;20.92;;;10.52;;
35042;SDS011;21230;51.170;17.024;2022-12-07T07:29:50;19.63;;;10.50;;
35042;SDS011;21230;51.170;17.024;2022-12-07T07:32:16;21.65;;;11.52;;
35042;SDS011;21230;51.170;17.024;2022-12-07T07:34:42;17.95;;;9.73;;
35042;SDS011;21230;51.170;17.024;2022-12-07T07:37:08;21.10;;;12.90;;
35042;SDS011;21230;51.170;17.024;2022-12-07T07:39:36;22.90;;;10.30;;
35042;SDS011;21230;51.170;17.024;2022-12-07T07:42:01;18.48;;;10.57;;
35042;SDS011;21230;51.170;17.024;2022-12-07T07:44:27;22.08;;;12.75;;
35042;SDS011;21230;51.170;17.024;2022-12-07T07:46:53;19.30;;;10.27;;
35042;SDS011;21230;51.170;17.024;2022-12-07T07:49:19;15.98;;;10.73;;
35042;SDS011;21230;51.170;17.024;2022-12-07T07:51:45;19.52;;;11.65;;
35042;SDS011;21230;51.170;17.024;2022-12-07T07:54:11;16.83;;;10.32;;
35042;SDS011;21230;51.170;17.024;2022-12-07T07:56:38;19.23;;;9.95;;
35042;SDS011;21230;51.170;17.024;2022-12-07T07:59:04;23.73;;;12.63;;
35042;SDS011;21230;51.170;17.024;2022-12-07T08:01:30;20.70;;;10.82;;
35042;SDS011;21230;51.170;17.024;2022-12-07T08:03:57;21.42;;;12.43;;
35042;SDS011;21230;51.170;17.024;2022-12-07T08:06:24;22.63;;;12.32;;
35042;SDS011;21230;51.170;17.024;2022-12-07T08:08:51;17.45;;;10.02;;
35042;SDS011;21230;51.170;17.024;2022-12-07T08:11:17;21.92;;;10.52;;
35042;SDS011;21230;51.170;17.024;2022-12-07T08:13:44;24.20;;;11.90;;
35042;SDS011;21230;51.170;17.024;2022-12-07T08:16:12;21.80;;;12.23;;
35042;SDS011;21230;51.170;17.024;2022-12-07T08:18:40;20.20;;;12.60;;
35042;SDS011;21230;51.170;17.024;2022-12-07T08:21:07;22.50;;;12.55;;
35042;SDS011;21230;51.170;17.024;2022-12-07T08:23:35;27.73;;;13.07;;
35042;SDS011;21230;51.170;17.024;2022-12-07T08:26:02;17.58;;;9.38;;
35042;SDS011;21230;51.170;17.024;2022-12-07T08:28:30;22.15;;;12.57;;
35042;SDS011;21230;51.170;17.024;2022-12-07T08:31:00;22.30;;;12.75;;
35042;SDS011;21230;51.170;17.024;2022-12-07T08:33:30;22.98;;;12.38;;
35042;SDS011;21230;51.170;17.024;2022-12-07T08:36:02;26.13;;;14.02;;
35042;SDS011;21230;51.170;17.024;2022-12-07T08:38:30;25.75;;;13.85;;
35042;SDS011;21230;51.170;17.024;2022-12-07T08:40:56;27.95;;;13.25;;
35042;SDS011;21230;51.170;17.024;2022-12-07T08:43:24;20.48;;;12.27;;
35042;SDS011;21230;51.170;17.024;2022-12-07T08:45:56;22.02;;;11.45;;
35042;SDS011;21230;51.170;17.024;2022-12-07T08:48:25;21.15;;;12.63;;
35042;SDS011;21230;51.170;17.024;2022-12-07T08:50:51;22.80;;;11.73;;
35042;SDS011;21230;51.170;17.024;2022-12-07T08:53:17;19.65;;;11.13;;
35042;SDS011;21230;51.170;17.024;2022-12-07T08:55:44;25.65;;;12.75;;
35042;SDS011;21230;51.170;17.024;2022-12-07T08:58:11;20.63;;;11.68;;
35042;SDS011;21230;51.170;17.024;2022-12-07T09:00:38;20.80;;;11.65;;
35042;SDS011;21230;51.170;17.024;2022-12-07T09:03:04;24.88;;;11.65;;
35042;SDS011;21230;51.170;17.024;2022-12-07T09:05:32;20.85;;;12.15;;
35042;SDS011;21230;51.170;17.024;2022-12-07T09:08:00;20.55;;;10.05;;
35042;SDS011;21230;51.170;17.024;2022-12-07T09:10:27;25.98;;;11.77;;
35042;SDS011;21230;51.170;17.024;2022-12-07T09:12:53;21.13;;;12.23;;
35042;SDS011;21230;51.170;17.024;2022-12-07T09:15:20;20.13;;;11.77;;
35042;SDS011;21230;51.170;17.024;2022-12-07T09:17:46;21.52;;;11.25;;
35042;SDS011;21230;51.170;17.024;2022-12-07T09:20:11;25.95;;;11.43;;
35042;SDS011;21230;51.170;17.024;2022-12-07T09:22:37;26.25;;;12.13;;
35042;SDS011;21230;51.170;17.024;2022-12-07T09:25:03;17.70;;;10.15;;
35042;SDS011;21230;51.170;17.024;2022-12-07T09:27:29;16.48;;;10.45;;
35042;SDS011;21230;51.170;17.024;2022-12-07T09:29:57;18.58;;;10.50;;
35042;SDS011;21230;51.170;17.024;2022-12-07T09:32:23;16.85;;;9.75;;
35042;SDS011;21230;51.170;17.024;2022-12-07T09:34:50;16.08;;;8.70;;
35042;SDS011;21230;51.170;17.024;2022-12-07T09:37:16;15.50;;;7.78;;
35042;SDS011;21230;51.170;17.024;2022-12-07T09:39:43;14.50;;;9.02;;
35042;SDS011;21230;51.170;17.024;2022-12-07T09:42:10;11.82;;;7.07;;
35042;SDS011;21230;51.170;17.024;2022-12-07T09:45:00;7.57;;;5.15;;
35042;SDS011;21230;51.170;17.024;2022-12-07T09:47:27;12.18;;;7.85;;
35042;SDS011;21230;51.170;17.024;2022-12-07T09:50:00;12.00;;;7.30;;
35042;SDS011;21230;51.170;17.024;2022-12-07T09:52:30;13.93;;;8.80;;
35042;SDS011;21230;51.170;17.024;2022-12-07T09:54:57;13.88;;;7.55;;
35042;SDS011;21230;51.170;17.024;2022-12-07T09:57:30;13.23;;;7.75;;
35042;SDS011;21230;51.170;17.024;2022-12-07T10:00:00;11.63;;;6.75;;
35042;SDS011;21230;51.170;17.024;2022-12-07T10:02:36;13.35;;;6.47;;
35042;SDS011;21230;51.170;17.024;2022-12-07T10:05:05;11.95;;;5.97;;
35042;SDS011;21230;51.170;17.024;2022-12-07T10:07:33;9.85;;;5.95;;
35042;SDS011;21230;51.170;17.024;2022-12-07T10:09:59;10.70;;;6.65;;
35042;SDS011;21230;51.170;17.024;2022-12-07T10:12:29;8.52;;;4.78;;
35042;SDS011;21230;51.170;17.024;2022-12-07T10:14:56;14.85;;;5.20;;
35042;SDS011;21230;51.170;17.024;2022-12-07T10:17:37;10.38;;;5.07;;
35042;SDS011;21230;51.170;17.024;2022-12-07T10:25:27;9.60;;;5.97;;
35042;SDS011;21230;51.170;17.024;2022-12-07T10:28:01;15.88;;;5.45;;
35042;SDS011;21230;51.170;17.024;2022-12-07T10:30:27;13.43;;;5.82;;
35042;SDS011;21230;51.170;17.024;2022-12-07T10:32:54;8.23;;;4.57;;
35042;SDS011;21230;51.170;17.024;2022-12-07T10:35:22;9.57;;;5.07;;
35042;SDS011;21230;51.170;17.024;2022-12-07T10:37:51;10.73;;;5.00;;
35042;SDS011;21230;51.170;17.024;2022-12-07T10:40:31;10.38;;;4.60;;
35042;SDS011;21230;51.170;17.024;2022-12-07T10:45:28;13.15;;;4.93;;
35042;SDS011;21230;51.170;17.024;2022-12-07T10:53:23;9.70;;;4.78;;
35042;SDS011;21230;51.170;17.024;2022-12-07T10:58:58;8.57;;;5.13;;
35042;SDS011;21230;51.170;17.024;2022-12-07T11:01:36;7.10;;;5.00;;
35042;SDS011;21230;51.170;17.024;2022-12-07T11:10:18;7.45;;;4.68;;
35042;SDS011;21230;51.170;17.024;2022-12-07T11:16:00;11.90;;;6.22;;
35042;SDS011;21230;51.170;17.024;2022-12-07T11:21:18;9.98;;;5.03;;
35042;SDS011;21230;51.170;17.024;2022-12-07T11:37:35;10.80;;;5.30;;
35042;SDS011;21230;51.170;17.024;2022-12-07T11:42:58;6.95;;;5.40;;
35042;SDS011;21230;51.170;17.024;2022-12-07T11:45:31;11.38;;;6.40;;
35042;SDS011;21230;51.170;17.024;2022-12-07T11:48:07;11.15;;;6.07;;
35042;SDS011;21230;51.170;17.024;2022-12-07T11:55:54;8.70;;;4.97;;
35042;SDS011;21230;51.170;17.024;2022-12-07T12:03:56;8.45;;;4.53;;
35042;SDS011;21230;51.170;17.024;2022-12-07T12:06:45;6.63;;;3.97;;
35042;SDS011;21230;51.170;17.024;2022-12-07T12:23:17;6.78;;;4.40;;
35042;SDS011;21230;51.170;17.024;2022-12-07T12:26:03;6.88;;;3.58;;
35042;SDS011;21230;51.170;17.024;2022-12-07T12:39:08;13.38;;;6.40;;
35042;SDS011;21230;51.170;17.024;2022-12-07T12:46:53;6.18;;;4.25;;
35042;SDS011;21230;51.170;17.024;2022-12-07T12:49:40;7.30;;;4.78;;
35042;SDS011;21230;51.170;17.024;2022-12-07T12:57:39;11.57;;;5.03;;
35042;SDS011;21230;51.170;17.024;2022-12-07T13:02:54;7.28;;;4.97;;
35042;SDS011;21230;51.170;17.024;2022-12-07T13:05:23;10.77;;;6.47;;
35042;SDS011;21230;51.170;17.024;2022-12-07T13:07:59;16.88;;;6.95;;
35042;SDS011;21230;51.170;17.024;2022-12-07T13:15:46;6.20;;;5.18;;
35042;SDS011;21230;51.170;17.024;2022-12-07T13:31:36;9.07;;;5.32;;
35042;SDS011;21230;51.170;17.024;2022-12-07T13:34:51;10.48;;;5.57;;
35042;SDS011;21230;51.170;17.024;2022-12-07T13:36:51;10.93;;;5.65;;
35042;SDS011;21230;51.170;17.024;2022-12-07T13:39:19;10.50;;;5.75;;
35042;SDS011;21230;51.170;17.024;2022-12-07T13:41:54;10.45;;;5.18;;
35042;SDS011;21230;51.170;17.024;2022-12-07T13:44:23;10.35;;;5.47;;
35042;SDS011;21230;51.170;17.024;2022-12-07T13:46:52;16.23;;;6.75;;
35042;SDS011;21230;51.170;17.024;2022-12-07T13:49:32;11.57;;;6.22;;
35042;SDS011;21230;51.170;17.024;2022-12-07T13:52:17;10.55;;;5.68;;
35042;SDS011;21230;51.170;17.024;2022-12-07T13:57:29;9.82;;;6.68;;
35042;SDS011;21230;51.170;17.024;2022-12-07T13:59:56;13.52;;;7.20;;
35042;SDS011;21230;51.170;17.024;2022-12-07T14:05:22;20.63;;;7.68;;
35042;SDS011;21230;51.170;17.024;2022-12-07T14:07:56;15.52;;;7.00;;
35042;SDS011;21230;51.170;17.024;2022-12-07T14:10:26;15.48;;;6.95;;
35042;SDS011;21230;51.170;17.024;2022-12-07T14:12:58;11.90;;;6.75;;
35042;SDS011;21230;51.170;17.024;2022-12-07T14:15:27;14.73;;;6.45;;
35042;SDS011;21230;51.170;17.024;2022-12-07T14:18:00;10.65;;;6.80;;
35042;SDS011;21230;51.170;17.024;2022-12-07T14:20:31;16.25;;;8.98;;
35042;SDS011;21230;51.170;17.024;2022-12-07T14:23:04;10.95;;;7.80;;
35042;SDS011;21230;51.170;17.024;2022-12-07T14:25:49;13.93;;;8.27;;
35042;SDS011;21230;51.170;17.024;2022-12-07T14:28:30;13.43;;;7.53;;
35042;SDS011;21230;51.170;17.024;2022-12-07T14:30:58;13.50;;;6.22;;
35042;SDS011;21230;51.170;17.024;2022-12-07T14:33:25;14.65;;;6.55;;
35042;SDS011;21230;51.170;17.024;2022-12-07T14:35:52;13.93;;;6.88;;
35042;SDS011;21230;51.170;17.024;2022-12-07T14:38:21;10.38;;;6.20;;
35042;SDS011;21230;51.170;17.024;2022-12-07T14:40:47;9.57;;;7.22;;
35042;SDS011;21230;51.170;17.024;2022-12-07T14:43:14;11.70;;;6.55;;
35042;SDS011;21230;51.170;17.024;2022-12-07T14:45:41;9.90;;;5.80;;
35042;SDS011;21230;51.170;17.024;2022-12-07T14:48:11;8.85;;;5.40;;
35042;SDS011;21230;51.170;17.024;2022-12-07T14:50:44;8.57;;;5.68;;
35042;SDS011;21230;51.170;17.024;2022-12-07T14:53:18;9.02;;;4.38;;
35042;SDS011;21230;51.170;17.024;2022-12-07T14:55:49;10.82;;;5.35;;
35042;SDS011;21230;51.170;17.024;2022-12-07T14:58:16;9.07;;;4.97;;
35042;SDS011;21230;51.170;17.024;2022-12-07T15:00:43;7.82;;;5.00;;
35042;SDS011;21230;51.170;17.024;2022-12-07T15:03:09;12.30;;;6.85;;
35042;SDS011;21230;51.170;17.024;2022-12-07T15:05:36;7.90;;;5.32;;
35042;SDS011;21230;51.170;17.024;2022-12-07T15:08:03;9.35;;;5.38;;
35042;SDS011;21230;51.170;17.024;2022-12-07T15:10:31;10.55;;;6.28;;
35042;SDS011;21230;51.170;17.024;2022-12-07T15:15:43;10.93;;;5.53;;
35042;SDS011;21230;51.170;17.024;2022-12-07T15:18:11;13.02;;;7.30;;
35042;SDS011;21230;51.170;17.024;2022-12-07T15:20:37;7.20;;;5.75;;
35042;SDS011;21230;51.170;17.024;2022-12-07T15:23:03;10.98;;;5.93;;
35042;SDS011;21230;51.170;17.024;2022-12-07T15:25:29;12.55;;;6.03;;
35042;SDS011;21230;51.170;17.024;2022-12-07T15:27:55;13.05;;;5.90;;
35042;SDS011;21230;51.170;17.024;2022-12-07T15:30:20;9.43;;;5.65;;
35042;SDS011;21230;51.170;17.024;2022-12-07T15:32:50;11.23;;;6.65;;
35042;SDS011;21230;51.170;17.024;2022-12-07T15:35:16;10.43;;;5.93;;
35042;SDS011;21230;51.170;17.024;2022-12-07T15:37:43;19.05;;;6.63;;
35042;SDS011;21230;51.170;17.024;2022-12-07T15:40:09;24.13;;;7.20;;
35042;SDS011;21230;51.170;17.024;2022-12-07T15:42:35;11.10;;;6.03;;
35042;SDS011;21230;51.170;17.024;2022-12-07T15:45:02;13.40;;;6.82;;
35042;SDS011;21230;51.170;17.024;2022-12-07T15:47:31;14.93;;;6.35;;
35042;SDS011;21230;51.170;17.024;2022-12-07T15:50:02;11.35;;;6.30;;
35042;SDS011;21230;51.170;17.024;2022-12-07T15:52:33;10.98;;;6.88;;
35042;SDS011;21230;51.170;17.024;2022-12-07T15:54:59;11.90;;;6.43;;
35042;SDS011;21230;51.170;17.024;2022-12-07T15:57:27;9.77;;;6.10;;
35042;SDS011;21230;51.170;17.024;2022-12-07T15:59:53;16.60;;;6.35;;
35042;SDS011;21230;51.170;17.024;2022-12-07T16:02:19;13.07;;;6.50;;
35042;SDS011;21230;51.170;17.024;2022-12-07T16:04:48;16.38;;;7.25;;
35042;SDS011;21230;51.170;17.024;2022-12-07T16:07:15;13.40;;;7.60;;
35042;SDS011;21230;51.170;17.024;2022-12-07T16:09:42;17.88;;;7.53;;
35042;SDS011;21230;51.170;17.024;2022-12-07T16:12:09;20.92;;;9.05;;
35042;SDS011;21230;51.170;17.024;2022-12-07T16:14:37;14.55;;;7.78;;
35042;SDS011;21230;51.170;17.024;2022-12-07T16:17:03;14.82;;;7.93;;
35042;SDS011;21230;51.170;17.024;2022-12-07T16:19:30;14.20;;;7.30;;
35042;SDS011;21230;51.170;17.024;2022-12-07T16:21:56;18.92;;;8.80;;
35042;SDS011;21230;51.170;17.024;2022-12-07T16:24:22;17.27;;;8.82;;
35042;SDS011;21230;51.170;17.024;2022-12-07T16:26:48;16.27;;;7.65;;
35042;SDS011;21230;51.170;17.024;2022-12-07T16:29:15;18.85;;;9.60;;
35042;SDS011;21230;51.170;17.024;2022-12-07T16:31:43;13.32;;;8.57;;
35042;SDS011;21230;51.170;17.024;2022-12-07T16:34:09;14.60;;;8.00;;
35042;SDS011;21230;51.170;17.024;2022-12-07T16:36:35;16.30;;;9.32;;
35042;SDS011;21230;51.170;17.024;2022-12-07T16:39:01;18.70;;;10.38;;
35042;SDS011;21230;51.170;17.024;2022-12-07T16:41:27;16.20;;;10.52;;
35042;SDS011;21230;51.170;17.024;2022-12-07T16:43:53;13.38;;;8.48;;
35042;SDS011;21230;51.170;17.024;2022-12-07T16:46:19;11.70;;;8.15;;
35042;SDS011;21230;51.170;17.024;2022-12-07T16:48:45;16.33;;;8.57;;
35042;SDS011;21230;51.170;17.024;2022-12-07T16:51:11;17.23;;;9.48;;
35042;SDS011;21230;51.170;17.024;2022-12-07T16:53:39;18.15;;;9.35;;
35042;SDS011;21230;51.170;17.024;2022-12-07T16:56:10;13.60;;;6.90;;
35042;SDS011;21230;51.170;17.024;2022-12-07T16:58:37;12.82;;;8.38;;
35042;SDS011;21230;51.170;17.024;2022-12-07T17:01:13;13.50;;;7.55;;
35042;SDS011;21230;51.170;17.024;2022-12-07T17:03:41;20.80;;;8.90;;
35042;SDS011;21230;51.170;17.024;2022-12-07T17:06:18;15.65;;;7.72;;
35042;SDS011;21230;51.170;17.024;2022-12-07T17:08:49;20.65;;;10.70;;
35042;SDS011;21230;51.170;17.024;2022-12-07T17:11:18;16.50;;;9.98;;